N831WY UHPP-RJCC
Flight info
| Callsign | N831WY |
|---|---|
| Flight time | N/A |
| Altitude | 43000 |
| Route | MK4L MK DCT UB DCT DIMOT DCT LATAK DCT BISIV/N0496F430 DCT MVE AWE KAORY |
| Aircraft | C750/M-SBDE3FGHRWXY/S |
Departure
| Time | N/A |
|---|---|
| Airport | Yelizovo Airport (UHPP) |
Arrival
| Time | 2026-02-22 23:20 |
|---|---|
| Airport | New Chitose Airport (RJCC) |
| Time | Latitude | Longitude | Altitude | Speed | Heading |
|---|---|---|---|---|---|
| 2026-02-22 21:31 | 52.21887 | 155.12041 | 47064 ft | 459 kts | 230° |
| 2026-02-22 21:31 | 52.19787 | 155.08105 | 47186 ft | 459 kts | 230° |
| 2026-02-22 21:31 | 52.17715 | 155.04225 | 47286 ft | 459 kts | 230° |
| 2026-02-22 21:32 | 52.13489 | 154.96332 | 47341 ft | 462 kts | 230° |
| 2026-02-22 21:32 | 52.09246 | 154.88432 | 47352 ft | 466 kts | 229° |
| 2026-02-22 21:33 | 52.04963 | 154.80484 | 47351 ft | 470 kts | 229° |
| 2026-02-22 21:33 | 52.00618 | 154.72444 | 47346 ft | 474 kts | 229° |
| 2026-02-22 21:34 | 51.96255 | 154.64399 | 47346 ft | 478 kts | 229° |
| 2026-02-22 21:34 | 51.91827 | 154.56258 | 47348 ft | 482 kts | 229° |
| 2026-02-22 21:35 | 51.87390 | 154.48129 | 47355 ft | 485 kts | 229° |
| 2026-02-22 21:35 | 51.83653 | 154.41302 | 47342 ft | 488 kts | 229° |
| 2026-02-22 21:36 | 51.78379 | 154.31698 | 47345 ft | 491 kts | 229° |
| 2026-02-22 21:36 | 51.73848 | 154.23478 | 47342 ft | 493 kts | 229° |
| 2026-02-22 21:37 | 51.70029 | 154.16570 | 47347 ft | 495 kts | 229° |
| 2026-02-22 21:37 | 51.65428 | 154.08271 | 47343 ft | 496 kts | 229° |
| 2026-02-22 21:38 | 51.60825 | 153.99997 | 47337 ft | 498 kts | 229° |
| 2026-02-22 21:38 | 51.56208 | 153.91725 | 47339 ft | 499 kts | 229° |
| 2026-02-22 21:39 | 51.51545 | 153.83398 | 47337 ft | 499 kts | 229° |
| 2026-02-22 21:39 | 51.46914 | 153.75155 | 47335 ft | 500 kts | 228° |
| 2026-02-22 21:40 | 51.42238 | 153.66860 | 47339 ft | 500 kts | 228° |
| 2026-02-22 21:40 | 51.37558 | 153.58584 | 47335 ft | 501 kts | 228° |
| 2026-02-22 21:41 | 51.32871 | 153.50326 | 47335 ft | 501 kts | 228° |
| 2026-02-22 21:41 | 51.28211 | 153.42139 | 47334 ft | 501 kts | 228° |
| 2026-02-22 21:42 | 51.23499 | 153.33889 | 47326 ft | 501 kts | 228° |
| 2026-02-22 21:42 | 51.18793 | 153.25676 | 47330 ft | 501 kts | 228° |
| 2026-02-22 21:43 | 51.14084 | 153.17483 | 47330 ft | 501 kts | 228° |
| 2026-02-22 21:43 | 51.09359 | 153.09291 | 47326 ft | 501 kts | 228° |
| 2026-02-22 21:44 | 51.04662 | 153.01175 | 47323 ft | 501 kts | 228° |
| 2026-02-22 21:44 | 50.99932 | 152.93027 | 47323 ft | 501 kts | 227° |
| 2026-02-22 21:45 | 50.95195 | 152.84893 | 47310 ft | 502 kts | 227° |
| 2026-02-22 21:45 | 50.90453 | 152.76777 | 47313 ft | 501 kts | 227° |
| 2026-02-22 21:46 | 50.85704 | 152.68674 | 47307 ft | 502 kts | 227° |
| 2026-02-22 21:46 | 50.80952 | 152.60593 | 47320 ft | 501 kts | 227° |
| 2026-02-22 21:47 | 50.76191 | 152.52522 | 47324 ft | 501 kts | 227° |
| 2026-02-22 21:47 | 50.71463 | 152.44534 | 47311 ft | 501 kts | 227° |
| 2026-02-22 21:48 | 50.66705 | 152.36519 | 47319 ft | 501 kts | 227° |
| 2026-02-22 21:48 | 50.61934 | 152.28508 | 47306 ft | 500 kts | 227° |
| 2026-02-22 21:49 | 50.57167 | 152.20531 | 47304 ft | 500 kts | 227° |
| 2026-02-22 21:49 | 50.52397 | 152.12573 | 47305 ft | 500 kts | 227° |
| 2026-02-22 21:50 | 50.47622 | 152.04631 | 47310 ft | 499 kts | 227° |
| 2026-02-22 21:50 | 50.42850 | 151.96719 | 47307 ft | 498 kts | 227° |
| 2026-02-22 21:51 | 50.38081 | 151.88838 | 47300 ft | 498 kts | 227° |
| 2026-02-22 21:51 | 50.33343 | 151.81032 | 47295 ft | 497 kts | 227° |
| 2026-02-22 21:52 | 50.28575 | 151.73200 | 47294 ft | 496 kts | 227° |
| 2026-02-22 21:52 | 50.23812 | 151.65401 | 47285 ft | 495 kts | 227° |
| 2026-02-22 21:53 | 50.19055 | 151.57636 | 47281 ft | 494 kts | 227° |
| 2026-02-22 21:53 | 50.14304 | 151.49905 | 47280 ft | 493 kts | 226° |
| 2026-02-22 21:54 | 50.09558 | 151.42205 | 47278 ft | 492 kts | 226° |
| 2026-02-22 21:54 | 50.04816 | 151.34536 | 47287 ft | 491 kts | 226° |
| 2026-02-22 21:55 | 50.00080 | 151.26899 | 47272 ft | 490 kts | 227° |
| 2026-02-22 21:55 | 49.95344 | 151.19285 | 47272 ft | 489 kts | 227° |
| 2026-02-22 21:56 | 49.90613 | 151.11700 | 47268 ft | 489 kts | 226° |
| 2026-02-22 21:56 | 49.85878 | 151.04134 | 47279 ft | 488 kts | 226° |
| 2026-02-22 21:57 | 49.81174 | 150.96639 | 47274 ft | 487 kts | 226° |
| 2026-02-22 21:57 | 49.76455 | 150.89143 | 47264 ft | 486 kts | 226° |
| 2026-02-22 21:58 | 49.71725 | 150.81652 | 47266 ft | 486 kts | 226° |
| 2026-02-22 21:58 | 49.66990 | 150.74175 | 47253 ft | 485 kts | 226° |
| 2026-02-22 21:59 | 49.62265 | 150.66735 | 47261 ft | 485 kts | 226° |
| 2026-02-22 21:59 | 49.57540 | 150.59317 | 47249 ft | 485 kts | 226° |
| 2026-02-22 22:00 | 49.50437 | 150.48207 | 47253 ft | 484 kts | 226° |
| 2026-02-22 22:00 | 49.45735 | 150.40881 | 47257 ft | 484 kts | 226° |
| 2026-02-22 22:01 | 49.40998 | 150.33519 | 47243 ft | 484 kts | 226° |
| 2026-02-22 22:01 | 49.36258 | 150.26176 | 47240 ft | 484 kts | 226° |
| 2026-02-22 22:02 | 49.31510 | 150.18841 | 47225 ft | 485 kts | 226° |
| 2026-02-22 22:02 | 49.26749 | 150.11507 | 47482 ft | 487 kts | 226° |
| 2026-02-22 22:03 | 49.24340 | 150.07803 | 47319 ft | 491 kts | 226° |
| 2026-02-22 22:03 | 49.21953 | 150.04139 | 47020 ft | 489 kts | 226° |
| 2026-02-22 22:03 | 49.19555 | 150.00465 | 47158 ft | 486 kts | 226° |
| 2026-02-22 22:03 | 49.17169 | 149.96815 | 47238 ft | 484 kts | 226° |
| 2026-02-22 22:04 | 49.12394 | 149.89522 | 47236 ft | 485 kts | 225° |
| 2026-02-22 22:04 | 49.07616 | 149.82248 | 47222 ft | 485 kts | 225° |
| 2026-02-22 22:05 | 49.02836 | 149.74990 | 47212 ft | 486 kts | 225° |
| 2026-02-22 22:05 | 48.98032 | 149.67719 | 47219 ft | 486 kts | 225° |
| 2026-02-22 22:06 | 48.93262 | 149.60517 | 47212 ft | 486 kts | 225° |
| 2026-02-22 22:06 | 48.88453 | 149.53279 | 47212 ft | 486 kts | 225° |
| 2026-02-22 22:07 | 48.83637 | 149.46050 | 47202 ft | 486 kts | 225° |
| 2026-02-22 22:07 | 48.78821 | 149.38844 | 47198 ft | 486 kts | 225° |
| 2026-02-22 22:08 | 48.73998 | 149.31646 | 47188 ft | 486 kts | 225° |
| 2026-02-22 22:08 | 48.69212 | 149.24523 | 47189 ft | 486 kts | 225° |
| 2026-02-22 22:09 | 48.64391 | 149.17370 | 47179 ft | 486 kts | 224° |
| 2026-02-22 22:09 | 48.59564 | 149.10227 | 47174 ft | 486 kts | 224° |
| 2026-02-22 22:10 | 48.54731 | 149.03096 | 47179 ft | 486 kts | 224° |
| 2026-02-22 22:10 | 48.49891 | 148.95974 | 47158 ft | 486 kts | 224° |
| 2026-02-22 22:11 | 48.45034 | 148.88847 | 47158 ft | 487 kts | 224° |
| 2026-02-22 22:11 | 48.40210 | 148.81789 | 47169 ft | 487 kts | 224° |
| 2026-02-22 22:12 | 48.35343 | 148.74688 | 47162 ft | 486 kts | 224° |
| 2026-02-22 22:12 | 48.30487 | 148.67622 | 47142 ft | 486 kts | 224° |
| 2026-02-22 22:13 | 48.25615 | 148.60553 | 47141 ft | 486 kts | 224° |
| 2026-02-22 22:13 | 48.20741 | 148.53502 | 47147 ft | 486 kts | 224° |
| 2026-02-22 22:14 | 48.15869 | 148.46472 | 47137 ft | 485 kts | 224° |
| 2026-02-22 22:14 | 48.11026 | 148.39504 | 47116 ft | 486 kts | 224° |
| 2026-02-22 22:15 | 48.06143 | 148.32497 | 47139 ft | 485 kts | 224° |
| 2026-02-22 22:15 | 48.01273 | 148.25530 | 47114 ft | 485 kts | 224° |
| 2026-02-22 22:16 | 47.96384 | 148.18552 | 47129 ft | 485 kts | 224° |
| 2026-02-22 22:16 | 47.91541 | 148.11661 | 47114 ft | 484 kts | 224° |
| 2026-02-22 22:17 | 47.86664 | 148.04738 | 47106 ft | 484 kts | 224° |
| 2026-02-22 22:17 | 47.81778 | 147.97824 | 47097 ft | 484 kts | 224° |
| 2026-02-22 22:18 | 47.76889 | 147.90923 | 47102 ft | 485 kts | 224° |
| 2026-02-22 22:18 | 47.71977 | 147.84009 | 47081 ft | 486 kts | 224° |
| 2026-02-22 22:19 | 47.67066 | 147.77114 | 47091 ft | 485 kts | 224° |
| 2026-02-22 22:19 | 47.62188 | 147.70286 | 47071 ft | 485 kts | 224° |
| 2026-02-22 22:20 | 47.57270 | 147.63420 | 47062 ft | 486 kts | 224° |
| 2026-02-22 22:20 | 47.52329 | 147.56540 | 47049 ft | 487 kts | 224° |
| 2026-02-22 22:21 | 47.47385 | 147.49674 | 47053 ft | 487 kts | 224° |
| 2026-02-22 22:21 | 47.42434 | 147.42818 | 47057 ft | 488 kts | 224° |
| 2026-02-22 22:22 | 47.37488 | 147.35987 | 47045 ft | 490 kts | 224° |
| 2026-02-22 22:22 | 47.32498 | 147.29113 | 47044 ft | 490 kts | 224° |
| 2026-02-22 22:23 | 47.28351 | 147.23416 | 47045 ft | 490 kts | 224° |
| 2026-02-22 22:23 | 47.22542 | 147.15455 | 47026 ft | 491 kts | 224° |
| 2026-02-22 22:24 | 47.17529 | 147.08606 | 47027 ft | 491 kts | 224° |
| 2026-02-22 22:24 | 47.13356 | 147.02919 | 47018 ft | 491 kts | 224° |
| 2026-02-22 22:25 | 47.08333 | 146.96090 | 47012 ft | 492 kts | 224° |
| 2026-02-22 22:25 | 47.03300 | 146.89265 | 47004 ft | 493 kts | 224° |
| 2026-02-22 22:26 | 46.98253 | 146.82441 | 46994 ft | 494 kts | 224° |
| 2026-02-22 22:26 | 46.93193 | 146.75617 | 46985 ft | 494 kts | 224° |
| 2026-02-22 22:27 | 46.88151 | 146.68873 | 46993 ft | 494 kts | 223° |
| 2026-02-22 22:27 | 46.83078 | 146.62110 | 46977 ft | 494 kts | 223° |
| 2026-02-22 22:28 | 46.78002 | 146.55353 | 46967 ft | 493 kts | 223° |
| 2026-02-22 22:28 | 46.72929 | 146.48624 | 46964 ft | 493 kts | 223° |
| 2026-02-22 22:29 | 46.67845 | 146.41895 | 46960 ft | 493 kts | 223° |
| 2026-02-22 22:29 | 46.62759 | 146.35184 | 46946 ft | 494 kts | 223° |
| 2026-02-22 22:30 | 46.57661 | 146.28471 | 46942 ft | 494 kts | 223° |
| 2026-02-22 22:30 | 46.52560 | 146.21776 | 46936 ft | 495 kts | 223° |
| 2026-02-22 22:31 | 46.47483 | 146.15127 | 46919 ft | 494 kts | 223° |
| 2026-02-22 22:31 | 46.42372 | 146.08453 | 46921 ft | 494 kts | 223° |
| 2026-02-22 22:32 | 46.37261 | 146.01795 | 46893 ft | 494 kts | 223° |
| 2026-02-22 22:32 | 46.32149 | 145.95154 | 46892 ft | 489 kts | 221° |
| 2026-02-22 22:33 | 46.27130 | 145.88654 | 46875 ft | 481 kts | 221° |
| 2026-02-22 22:33 | 46.22194 | 145.82273 | 46876 ft | 477 kts | 221° |
| 2026-02-22 22:34 | 46.17263 | 145.75917 | 46871 ft | 475 kts | 221° |
| 2026-02-22 22:34 | 46.12346 | 145.69593 | 46867 ft | 472 kts | 221° |
| 2026-02-22 22:35 | 46.07466 | 145.63334 | 46866 ft | 472 kts | 221° |
| 2026-02-22 22:35 | 46.02575 | 145.57073 | 46857 ft | 469 kts | 221° |
| 2026-02-22 22:36 | 45.97705 | 145.50859 | 46851 ft | 466 kts | 221° |
| 2026-02-22 22:36 | 45.92847 | 145.44672 | 46854 ft | 466 kts | 221° |
| 2026-02-22 22:37 | 45.88003 | 145.38520 | 46843 ft | 468 kts | 221° |
| 2026-02-22 22:37 | 45.83139 | 145.32355 | 46838 ft | 466 kts | 221° |
| 2026-02-22 22:38 | 45.78265 | 145.26195 | 46829 ft | 468 kts | 222° |
| 2026-02-22 22:38 | 45.73378 | 145.20032 | 46830 ft | 469 kts | 221° |
| 2026-02-22 22:39 | 45.68464 | 145.13849 | 46813 ft | 472 kts | 221° |
| 2026-02-22 22:39 | 45.63511 | 145.07636 | 46810 ft | 474 kts | 221° |
| 2026-02-22 22:40 | 45.58543 | 145.01415 | 46799 ft | 475 kts | 221° |
| 2026-02-22 22:40 | 45.53596 | 144.95239 | 46795 ft | 477 kts | 221° |
| 2026-02-22 22:41 | 45.48595 | 144.89008 | 46793 ft | 476 kts | 221° |
| 2026-02-22 22:41 | 45.43597 | 144.82797 | 46786 ft | 478 kts | 221° |
| 2026-02-22 22:42 | 45.38579 | 144.76578 | 46785 ft | 477 kts | 221° |
| 2026-02-22 22:42 | 45.33561 | 144.70371 | 46787 ft | 477 kts | 221° |
| 2026-02-22 22:43 | 45.28595 | 144.64246 | 46759 ft | 473 kts | 221° |
| 2026-02-22 22:43 | 45.23608 | 144.58108 | 46764 ft | 475 kts | 221° |
| 2026-02-22 22:44 | 45.18592 | 144.51951 | 46751 ft | 478 kts | 221° |
| 2026-02-22 22:44 | 45.13551 | 144.45777 | 46756 ft | 480 kts | 221° |
| 2026-02-22 22:45 | 45.08485 | 144.39588 | 46757 ft | 483 kts | 221° |
| 2026-02-22 22:45 | 45.03385 | 144.33372 | 46757 ft | 485 kts | 222° |
| 2026-02-22 22:46 | 44.98288 | 144.27096 | 46737 ft | 486 kts | 224° |
| 2026-02-22 22:46 | 44.93357 | 144.20600 | 46741 ft | 488 kts | 224° |
| 2026-02-22 22:47 | 44.88363 | 144.14081 | 46741 ft | 489 kts | 224° |
| 2026-02-22 22:47 | 44.83372 | 144.07551 | 46736 ft | 490 kts | 224° |
| 2026-02-22 22:48 | 44.78368 | 144.01039 | 46740 ft | 490 kts | 224° |
| 2026-02-22 22:48 | 44.73359 | 143.94525 | 46738 ft | 488 kts | 224° |
| 2026-02-22 22:49 | 44.68369 | 143.88059 | 46723 ft | 487 kts | 224° |
| 2026-02-22 22:49 | 44.63403 | 143.81635 | 46727 ft | 489 kts | 224° |
| 2026-02-22 22:50 | 44.58387 | 143.75165 | 46734 ft | 491 kts | 224° |
| 2026-02-22 22:50 | 44.53351 | 143.68684 | 46738 ft | 492 kts | 224° |
| 2026-02-22 22:51 | 44.48285 | 143.62181 | 46735 ft | 495 kts | 224° |
| 2026-02-22 22:51 | 44.43221 | 143.55698 | 46735 ft | 490 kts | 224° |
| 2026-02-22 22:52 | 44.38218 | 143.49306 | 46732 ft | 484 kts | 225° |
| 2026-02-22 22:52 | 44.33241 | 143.42962 | 46723 ft | 483 kts | 225° |
| 2026-02-22 22:53 | 44.28491 | 143.36530 | 45972 ft | 475 kts | 229° |
| 2026-02-22 22:53 | 44.26263 | 143.33145 | 45108 ft | 468 kts | 229° |
| 2026-02-22 22:53 | 44.24089 | 143.29864 | 44247 ft | 461 kts | 229° |
| 2026-02-22 22:54 | 44.19731 | 143.23433 | 42414 ft | 448 kts | 228° |
| 2026-02-22 22:54 | 44.17589 | 143.20238 | 41140 ft | 449 kts | 227° |
| 2026-02-22 22:54 | 44.15637 | 143.17319 | 40059 ft | 448 kts | 227° |
| 2026-02-22 22:55 | 44.13588 | 143.14280 | 38958 ft | 418 kts | 226° |
| 2026-02-22 22:55 | 44.11612 | 143.11366 | 37682 ft | 417 kts | 225° |
| 2026-02-22 22:55 | 44.09626 | 143.08430 | 36226 ft | 414 kts | 224° |
| 2026-02-22 22:55 | 44.07658 | 143.05514 | 34893 ft | 412 kts | 224° |
| 2026-02-22 22:56 | 44.05690 | 143.02606 | 33590 ft | 411 kts | 223° |
| 2026-02-22 22:56 | 44.03812 | 142.99831 | 32156 ft | 382 kts | 223° |
| 2026-02-22 22:56 | 44.02048 | 142.97229 | 30753 ft | 355 kts | 224° |
| 2026-02-22 22:56 | 44.00399 | 142.94820 | 29345 ft | 332 kts | 224° |
| 2026-02-22 22:57 | 43.98813 | 142.92505 | 27902 ft | 343 kts | 224° |
| 2026-02-22 22:57 | 43.97112 | 142.90006 | 27736 ft | 362 kts | 225° |
| 2026-02-22 22:57 | 43.95380 | 142.87450 | 27380 ft | 366 kts | 225° |
| 2026-02-22 22:57 | 43.93640 | 142.84889 | 26890 ft | 358 kts | 225° |
| 2026-02-22 22:58 | 43.91959 | 142.82428 | 26420 ft | 352 kts | 225° |
| 2026-02-22 22:58 | 43.90277 | 142.79969 | 25954 ft | 347 kts | 225° |
| 2026-02-22 22:58 | 43.88627 | 142.77552 | 25495 ft | 341 kts | 225° |
| 2026-02-22 22:58 | 43.87022 | 142.75202 | 25061 ft | 336 kts | 225° |
| 2026-02-22 22:59 | 43.85415 | 142.72854 | 24619 ft | 330 kts | 225° |
| 2026-02-22 22:59 | 43.83852 | 142.70573 | 24190 ft | 327 kts | 225° |
| 2026-02-22 22:59 | 43.82286 | 142.68286 | 23760 ft | 324 kts | 224° |
| 2026-02-22 22:59 | 43.80739 | 142.66031 | 23331 ft | 322 kts | 224° |
| 2026-02-22 23:00 | 43.79208 | 142.63801 | 22888 ft | 318 kts | 224° |
| 2026-02-22 23:00 | 43.77704 | 142.61611 | 22472 ft | 315 kts | 224° |
| 2026-02-22 23:00 | 43.76184 | 142.59401 | 22068 ft | 313 kts | 224° |
| 2026-02-22 23:00 | 43.74680 | 142.57216 | 21650 ft | 312 kts | 224° |
| 2026-02-22 23:01 | 43.73212 | 142.55083 | 21238 ft | 309 kts | 224° |
| 2026-02-22 23:01 | 43.71682 | 142.53006 | 20888 ft | 307 kts | 221° |
| 2026-02-22 23:01 | 43.70077 | 142.51043 | 20539 ft | 305 kts | 220° |
| 2026-02-22 23:01 | 43.68528 | 142.49103 | 20210 ft | 304 kts | 221° |
| 2026-02-22 23:02 | 43.66989 | 142.47086 | 19873 ft | 302 kts | 221° |
| 2026-02-22 23:02 | 43.65460 | 142.45094 | 19550 ft | 300 kts | 221° |
| 2026-02-22 23:02 | 43.63997 | 142.43219 | 19257 ft | 277 kts | 220° |
| 2026-02-22 23:02 | 43.62676 | 142.41525 | 19239 ft | 242 kts | 220° |
| 2026-02-22 23:03 | 43.61471 | 142.39978 | 18580 ft | 234 kts | 220° |
| 2026-02-22 23:03 | 43.60211 | 142.38371 | 16997 ft | 270 kts | 220° |
| 2026-02-22 23:03 | 43.58791 | 142.36554 | 16818 ft | 278 kts | 220° |
| 2026-02-22 23:03 | 43.57359 | 142.34710 | 16857 ft | 284 kts | 220° |
| 2026-02-22 23:04 | 43.55920 | 142.32865 | 16734 ft | 288 kts | 220° |
| 2026-02-22 23:04 | 43.54451 | 142.30987 | 16361 ft | 285 kts | 220° |
| 2026-02-22 23:04 | 43.52988 | 142.29115 | 15972 ft | 284 kts | 220° |
| 2026-02-22 23:04 | 43.51563 | 142.27292 | 15601 ft | 281 kts | 220° |
| 2026-02-22 23:05 | 43.50133 | 142.25466 | 15359 ft | 280 kts | 220° |
| 2026-02-22 23:05 | 43.48697 | 142.23634 | 14989 ft | 279 kts | 220° |
| 2026-02-22 23:05 | 43.47277 | 142.21821 | 14628 ft | 276 kts | 220° |
| 2026-02-22 23:05 | 43.45888 | 142.20049 | 14272 ft | 274 kts | 220° |
| 2026-02-22 23:06 | 43.44492 | 142.18272 | 13908 ft | 273 kts | 220° |
| 2026-02-22 23:06 | 43.43043 | 142.16432 | 13551 ft | 297 kts | 220° |
| 2026-02-22 23:06 | 43.41457 | 142.14419 | 13106 ft | 314 kts | 221° |
| 2026-02-22 23:06 | 43.39864 | 142.12385 | 12712 ft | 316 kts | 221° |
| 2026-02-22 23:07 | 43.38250 | 142.10331 | 12274 ft | 315 kts | 221° |
| 2026-02-22 23:07 | 43.36627 | 142.08277 | 12124 ft | 313 kts | 221° |
| 2026-02-22 23:07 | 43.35040 | 142.06291 | 12472 ft | 312 kts | 221° |
| 2026-02-22 23:07 | 43.33426 | 142.04305 | 13314 ft | 308 kts | 220° |
| 2026-02-22 23:08 | 43.31956 | 142.02506 | 14317 ft | 252 kts | 220° |
| 2026-02-22 23:08 | 43.30664 | 142.00923 | 14484 ft | 263 kts | 220° |
| 2026-02-22 23:08 | 43.29249 | 141.99196 | 13809 ft | 274 kts | 220° |
| 2026-02-22 23:08 | 43.27823 | 141.97466 | 12518 ft | 267 kts | 220° |
| 2026-02-22 23:09 | 43.26467 | 141.95856 | 10995 ft | 255 kts | 220° |
| 2026-02-22 23:09 | 43.25108 | 141.94288 | 9023 ft | 253 kts | 221° |
| 2026-02-22 23:09 | 43.23752 | 141.92765 | 6745 ft | 249 kts | 220° |
| 2026-02-22 23:09 | 43.22513 | 141.91155 | 5446 ft | 227 kts | 230° |
| 2026-02-22 23:10 | 43.21606 | 141.89500 | 5508 ft | 225 kts | 231° |
| 2026-02-22 23:10 | 43.20563 | 141.87901 | 5530 ft | 224 kts | 225° |
| 2026-02-22 23:10 | 43.19399 | 141.86454 | 5558 ft | 225 kts | 222° |
| 2026-02-22 23:10 | 43.18221 | 141.85031 | 5581 ft | 227 kts | 223° |
| 2026-02-22 23:11 | 43.17444 | 141.84059 | 5576 ft | 227 kts | 224° |
| 2026-02-22 23:11 | 43.15903 | 141.82104 | 5574 ft | 227 kts | 224° |
| 2026-02-22 23:11 | 43.14735 | 141.80635 | 5573 ft | 227 kts | 224° |
| 2026-02-22 23:11 | 43.13960 | 141.79664 | 5561 ft | 227 kts | 224° |
| 2026-02-22 23:12 | 43.12406 | 141.77716 | 5560 ft | 227 kts | 224° |
| 2026-02-22 23:12 | 43.11612 | 141.76719 | 5431 ft | 230 kts | 224° |
| 2026-02-22 23:12 | 43.10441 | 141.75250 | 5151 ft | 231 kts | 224° |
| 2026-02-22 23:12 | 43.09256 | 141.73766 | 4837 ft | 230 kts | 224° |
| 2026-02-22 23:13 | 43.08084 | 141.72298 | 4525 ft | 226 kts | 223° |
| 2026-02-22 23:13 | 43.06852 | 141.70984 | 4216 ft | 225 kts | 214° |
| 2026-02-22 23:13 | 43.05469 | 141.69952 | 3911 ft | 227 kts | 210° |
| 2026-02-22 23:13 | 43.04084 | 141.68967 | 3629 ft | 228 kts | 210° |
| 2026-02-22 23:14 | 43.02677 | 141.67956 | 3345 ft | 228 kts | 210° |
| 2026-02-22 23:14 | 43.01274 | 141.66937 | 3067 ft | 227 kts | 210° |
| 2026-02-22 23:14 | 42.99939 | 141.65973 | 3041 ft | 206 kts | 210° |
| 2026-02-22 23:14 | 42.98568 | 141.65507 | 3037 ft | 205 kts | 189° |
| 2026-02-22 23:15 | 42.97130 | 141.65580 | 3049 ft | 213 kts | 180° |
| 2026-02-22 23:15 | 42.95646 | 141.65836 | 3062 ft | 215 kts | 178° |
| 2026-02-22 23:15 | 42.94219 | 141.66096 | 3061 ft | 193 kts | 179° |
| 2026-02-22 23:15 | 42.92968 | 141.66337 | 3006 ft | 171 kts | 180° |
| 2026-02-22 23:16 | 42.91837 | 141.66551 | 2789 ft | 161 kts | 180° |
| 2026-02-22 23:16 | 42.90763 | 141.66731 | 2607 ft | 145 kts | 182° |
| 2026-02-22 23:16 | 42.89845 | 141.66846 | 2366 ft | 122 kts | 184° |
| 2026-02-22 23:16 | 42.89035 | 141.66948 | 2100 ft | 115 kts | 183° |
| 2026-02-22 23:17 | 42.88249 | 141.67102 | 1910 ft | 113 kts | 180° |
| 2026-02-22 23:17 | 42.87486 | 141.67269 | 1774 ft | 110 kts | 179° |
| 2026-02-22 23:17 | 42.86727 | 141.67416 | 1661 ft | 109 kts | 181° |
| 2026-02-22 23:17 | 42.85966 | 141.67564 | 1552 ft | 112 kts | 181° |
| 2026-02-22 23:18 | 42.85172 | 141.67688 | 1367 ft | 116 kts | 180° |
| 2026-02-22 23:18 | 42.84384 | 141.67835 | 1227 ft | 116 kts | 179° |
| 2026-02-22 23:18 | 42.83581 | 141.67973 | 1058 ft | 118 kts | 179° |
| 2026-02-22 23:18 | 42.82758 | 141.68111 | 889 ft | 118 kts | 178° |
| 2026-02-22 23:19 | 42.81947 | 141.68257 | 744 ft | 117 kts | 178° |
| 2026-02-22 23:19 | 42.81135 | 141.68398 | 591 ft | 120 kts | 178° |
| 2026-02-22 23:19 | 42.80292 | 141.68536 | 397 ft | 123 kts | 176° |
| 2026-02-22 23:19 | 42.79451 | 141.68727 | 267 ft | 121 kts | 176° |
| 2026-02-22 23:20 | 42.78618 | 141.68850 | 114 ft | 115 kts | 178° |
| 2026-02-22 23:20 | 42.77918 | 141.68968 | 101 ft | 88 kts | 172° |
| 2026-02-22 23:20 | 42.77441 | 141.69057 | 97 ft | 39 kts | 172° |
| 2026-02-22 23:20 | 42.77178 | 141.69020 | 93 ft | 36 kts | 201° |
| 2026-02-22 23:21 | 42.77106 | 141.68898 | 94 ft | 14 kts | 300° |
| 2026-02-22 23:21 | 42.77175 | 141.68876 | 88 ft | 12 kts | 352° |
| 2026-02-22 23:21 | 42.77256 | 141.68861 | 89 ft | 12 kts | 353° |
| 2026-02-22 23:21 | 42.77335 | 141.68848 | 92 ft | 11 kts | 353° |
| 2026-02-22 23:22 | 42.77412 | 141.68835 | 95 ft | 12 kts | 352° |
| 2026-02-22 23:22 | 42.77503 | 141.68770 | 93 ft | 20 kts | 307° |
| 2026-02-22 23:22 | 42.77598 | 141.68621 | 96 ft | 22 kts | 340° |
| 2026-02-22 23:22 | 42.77756 | 141.68589 | 100 ft | 23 kts | 353° |
| 2026-02-22 23:23 | 42.77912 | 141.68563 | 102 ft | 22 kts | 353° |
| 2026-02-22 23:23 | 42.78007 | 141.68493 | 100 ft | 12 kts | 263° |
| 2026-02-22 23:23 | 42.78000 | 141.68426 | 102 ft | 0 kts | 261° |